sensor_id;sensor_type;location;lat;lon;timestamp;P1;durP1;ratioP1;P2;durP2;ratioP2
14187;SDS011;7175;51.978;5.330;2024-03-08T00:00:52;25.90;;;23.90;;
14187;SDS011;7175;51.978;5.330;2024-03-08T00:03:20;25.37;;;23.47;;
14187;SDS011;7175;51.978;5.330;2024-03-08T00:05:49;25.87;;;23.97;;
14187;SDS011;7175;51.978;5.330;2024-03-08T00:08:17;25.43;;;23.53;;
14187;SDS011;7175;51.978;5.330;2024-03-08T00:10:46;25.40;;;23.50;;
14187;SDS011;7175;51.978;5.330;2024-03-08T00:13:14;25.27;;;23.37;;
14187;SDS011;7175;51.978;5.330;2024-03-08T00:15:44;25.40;;;23.50;;
14187;SDS011;7175;51.978;5.330;2024-03-08T00:18:12;25.30;;;23.40;;
14187;SDS011;7175;51.978;5.330;2024-03-08T00:20:41;25.07;;;23.17;;
14187;SDS011;7175;51.978;5.330;2024-03-08T00:23:10;25.40;;;23.50;;
14187;SDS011;7175;51.978;5.330;2024-03-08T00:25:38;24.43;;;22.53;;
14187;SDS011;7175;51.978;5.330;2024-03-08T00:28:07;24.63;;;22.73;;
14187;SDS011;7175;51.978;5.330;2024-03-08T00:30:35;24.87;;;22.97;;
14187;SDS011;7175;51.978;5.330;2024-03-08T00:33:05;24.60;;;22.70;;
14187;SDS011;7175;51.978;5.330;2024-03-08T00:35:34;24.27;;;22.40;;
14187;SDS011;7175;51.978;5.330;2024-03-08T00:38:03;24.13;;;22.23;;
14187;SDS011;7175;51.978;5.330;2024-03-08T00:40:31;24.17;;;22.27;;
14187;SDS011;7175;51.978;5.330;2024-03-08T00:42:59;24.47;;;22.57;;
14187;SDS011;7175;51.978;5.330;2024-03-08T00:45:30;24.47;;;22.57;;
14187;SDS011;7175;51.978;5.330;2024-03-08T00:47:58;23.67;;;21.87;;
14187;SDS011;7175;51.978;5.330;2024-03-08T00:50:28;24.20;;;22.30;;
14187;SDS011;7175;51.978;5.330;2024-03-08T00:52:57;24.20;;;22.30;;
14187;SDS011;7175;51.978;5.330;2024-03-08T00:55:25;24.17;;;22.27;;
14187;SDS011;7175;51.978;5.330;2024-03-08T00:57:53;24.23;;;22.33;;
14187;SDS011;7175;51.978;5.330;2024-03-08T01:00:22;23.90;;;22.10;;
14187;SDS011;7175;51.978;5.330;2024-03-08T01:02:50;24.33;;;22.43;;
14187;SDS011;7175;51.978;5.330;2024-03-08T01:05:19;24.10;;;22.20;;
14187;SDS011;7175;51.978;5.330;2024-03-08T01:07:49;24.20;;;22.30;;
14187;SDS011;7175;51.978;5.330;2024-03-08T01:10:17;24.17;;;22.27;;
14187;SDS011;7175;51.978;5.330;2024-03-08T01:12:46;24.37;;;22.47;;
14187;SDS011;7175;51.978;5.330;2024-03-08T01:15:14;25.10;;;23.20;;
14187;SDS011;7175;51.978;5.330;2024-03-08T01:17:42;25.63;;;23.70;;
14187;SDS011;7175;51.978;5.330;2024-03-08T01:20:11;25.40;;;23.43;;
14187;SDS011;7175;51.978;5.330;2024-03-08T01:22:40;25.40;;;23.50;;
14187;SDS011;7175;51.978;5.330;2024-03-08T01:25:09;25.60;;;23.70;;
14187;SDS011;7175;51.978;5.330;2024-03-08T01:27:38;25.07;;;23.17;;
14187;SDS011;7175;51.978;5.330;2024-03-08T01:30:06;25.30;;;23.40;;
14187;SDS011;7175;51.978;5.330;2024-03-08T01:32:37;25.27;;;23.37;;
14187;SDS011;7175;51.978;5.330;2024-03-08T01:35:06;25.27;;;23.37;;
14187;SDS011;7175;51.978;5.330;2024-03-08T01:37:36;25.30;;;23.40;;
14187;SDS011;7175;51.978;5.330;2024-03-08T01:40:04;25.00;;;23.10;;
14187;SDS011;7175;51.978;5.330;2024-03-08T01:42:36;25.17;;;23.27;;
14187;SDS011;7175;51.978;5.330;2024-03-08T01:45:05;25.60;;;23.70;;
14187;SDS011;7175;51.978;5.330;2024-03-08T01:47:33;25.63;;;23.73;;
14187;SDS011;7175;51.978;5.330;2024-03-08T01:50:02;26.07;;;24.07;;
14187;SDS011;7175;51.978;5.330;2024-03-08T01:52:32;26.23;;;24.23;;
14187;SDS011;7175;51.978;5.330;2024-03-08T01:55:02;26.27;;;24.27;;
14187;SDS011;7175;51.978;5.330;2024-03-08T01:57:33;25.80;;;23.80;;
14187;SDS011;7175;51.978;5.330;2024-03-08T02:00:04;26.73;;;24.73;;
14187;SDS011;7175;51.978;5.330;2024-03-08T02:02:38;26.33;;;24.33;;
14187;SDS011;7175;51.978;5.330;2024-03-08T02:05:10;26.90;;;24.90;;
14187;SDS011;7175;51.978;5.330;2024-03-08T02:07:40;26.60;;;24.60;;
14187;SDS011;7175;51.978;5.330;2024-03-08T02:10:10;27.07;;;25.07;;
14187;SDS011;7175;51.978;5.330;2024-03-08T02:12:39;26.83;;;24.83;;
14187;SDS011;7175;51.978;5.330;2024-03-08T02:15:09;27.50;;;25.50;;
14187;SDS011;7175;51.978;5.330;2024-03-08T02:17:38;26.83;;;24.83;;
14187;SDS011;7175;51.978;5.330;2024-03-08T02:20:06;26.80;;;24.80;;
14187;SDS011;7175;51.978;5.330;2024-03-08T02:22:38;27.37;;;25.30;;
14187;SDS011;7175;51.978;5.330;2024-03-08T02:25:07;27.37;;;25.27;;
14187;SDS011;7175;51.978;5.330;2024-03-08T02:27:36;27.40;;;25.30;;
14187;SDS011;7175;51.978;5.330;2024-03-08T02:30:05;27.00;;;25.00;;
14187;SDS011;7175;51.978;5.330;2024-03-08T02:32:34;27.23;;;25.20;;
14187;SDS011;7175;51.978;5.330;2024-03-08T02:35:03;27.53;;;25.43;;
14187;SDS011;7175;51.978;5.330;2024-03-08T02:37:32;27.77;;;25.67;;
14187;SDS011;7175;51.978;5.330;2024-03-08T02:40:02;27.10;;;25.10;;
14187;SDS011;7175;51.978;5.330;2024-03-08T02:42:31;27.07;;;25.07;;
14187;SDS011;7175;51.978;5.330;2024-03-08T02:45:00;27.20;;;25.20;;
14187;SDS011;7175;51.978;5.330;2024-03-08T02:47:28;26.20;;;24.20;;
14187;SDS011;7175;51.978;5.330;2024-03-08T02:49:57;26.80;;;24.80;;
14187;SDS011;7175;51.978;5.330;2024-03-08T02:52:28;27.23;;;25.23;;
14187;SDS011;7175;51.978;5.330;2024-03-08T02:54:57;27.13;;;25.13;;
14187;SDS011;7175;51.978;5.330;2024-03-08T02:57:26;27.07;;;25.07;;
14187;SDS011;7175;51.978;5.330;2024-03-08T02:59:55;26.77;;;24.77;;
14187;SDS011;7175;51.978;5.330;2024-03-08T03:02:26;25.80;;;23.80;;
14187;SDS011;7175;51.978;5.330;2024-03-08T03:04:54;26.30;;;24.30;;
14187;SDS011;7175;51.978;5.330;2024-03-08T03:07:23;26.37;;;24.37;;
14187;SDS011;7175;51.978;5.330;2024-03-08T03:09:53;26.20;;;24.20;;
14187;SDS011;7175;51.978;5.330;2024-03-08T03:12:22;26.17;;;24.17;;
14187;SDS011;7175;51.978;5.330;2024-03-08T03:14:52;26.00;;;24.00;;
14187;SDS011;7175;51.978;5.330;2024-03-08T03:17:22;25.87;;;23.87;;
14187;SDS011;7175;51.978;5.330;2024-03-08T03:19:51;26.03;;;24.03;;
14187;SDS011;7175;51.978;5.330;2024-03-08T03:22:20;26.50;;;24.50;;
14187;SDS011;7175;51.978;5.330;2024-03-08T03:24:48;26.07;;;24.07;;
14187;SDS011;7175;51.978;5.330;2024-03-08T03:27:17;25.63;;;23.63;;
14187;SDS011;7175;51.978;5.330;2024-03-08T03:29:46;25.60;;;23.60;;
14187;SDS011;7175;51.978;5.330;2024-03-08T03:32:17;25.60;;;23.60;;
14187;SDS011;7175;51.978;5.330;2024-03-08T03:34:46;26.13;;;24.13;;
14187;SDS011;7175;51.978;5.330;2024-03-08T03:37:14;25.73;;;23.73;;
14187;SDS011;7175;51.978;5.330;2024-03-08T03:39:44;25.17;;;23.27;;
14187;SDS011;7175;51.978;5.330;2024-03-08T03:42:16;25.57;;;23.57;;
14187;SDS011;7175;51.978;5.330;2024-03-08T03:44:44;25.67;;;23.67;;
14187;SDS011;7175;51.978;5.330;2024-03-08T03:47:13;25.80;;;23.80;;
14187;SDS011;7175;51.978;5.330;2024-03-08T03:49:43;25.10;;;23.20;;
14187;SDS011;7175;51.978;5.330;2024-03-08T03:52:12;25.80;;;23.80;;
14187;SDS011;7175;51.978;5.330;2024-03-08T03:54:41;25.70;;;23.80;;
14187;SDS011;7175;51.978;5.330;2024-03-08T03:57:10;25.07;;;23.17;;
14187;SDS011;7175;51.978;5.330;2024-03-08T03:59:39;25.27;;;23.37;;
14187;SDS011;7175;51.978;5.330;2024-03-08T04:02:08;25.90;;;24.00;;
14187;SDS011;7175;51.978;5.330;2024-03-08T04:04:37;25.70;;;23.80;;
14187;SDS011;7175;51.978;5.330;2024-03-08T04:07:07;25.30;;;23.40;;
14187;SDS011;7175;51.978;5.330;2024-03-08T04:09:36;26.30;;;24.30;;
14187;SDS011;7175;51.978;5.330;2024-03-08T04:12:04;26.27;;;24.27;;
14187;SDS011;7175;51.978;5.330;2024-03-08T04:14:33;25.87;;;23.97;;
14187;SDS011;7175;51.978;5.330;2024-03-08T04:17:02;26.07;;;24.10;;
14187;SDS011;7175;51.978;5.330;2024-03-08T04:19:32;25.57;;;23.60;;
14187;SDS011;7175;51.978;5.330;2024-03-08T04:22:00;25.63;;;23.73;;
14187;SDS011;7175;51.978;5.330;2024-03-08T04:24:30;26.53;;;24.57;;
14187;SDS011;7175;51.978;5.330;2024-03-08T04:26:59;26.10;;;24.10;;
14187;SDS011;7175;51.978;5.330;2024-03-08T04:29:27;26.27;;;24.27;;
14187;SDS011;7175;51.978;5.330;2024-03-08T04:31:56;26.00;;;24.00;;
14187;SDS011;7175;51.978;5.330;2024-03-08T04:34:24;26.30;;;24.30;;
14187;SDS011;7175;51.978;5.330;2024-03-08T04:36:56;26.20;;;24.20;;
14187;SDS011;7175;51.978;5.330;2024-03-08T04:39:24;25.43;;;23.43;;
14187;SDS011;7175;51.978;5.330;2024-03-08T04:41:56;25.37;;;23.47;;
14187;SDS011;7175;51.978;5.330;2024-03-08T04:44:29;25.53;;;23.63;;
14187;SDS011;7175;51.978;5.330;2024-03-08T04:46:58;25.07;;;23.17;;
14187;SDS011;7175;51.978;5.330;2024-03-08T04:49:27;24.93;;;23.03;;
14187;SDS011;7175;51.978;5.330;2024-03-08T04:51:55;24.47;;;22.57;;
14187;SDS011;7175;51.978;5.330;2024-03-08T04:54:23;24.83;;;22.93;;
14187;SDS011;7175;51.978;5.330;2024-03-08T04:56:52;24.97;;;23.07;;
14187;SDS011;7175;51.978;5.330;2024-03-08T04:59:22;25.17;;;23.27;;
14187;SDS011;7175;51.978;5.330;2024-03-08T05:01:51;24.90;;;23.00;;
14187;SDS011;7175;51.978;5.330;2024-03-08T05:04:19;25.10;;;23.20;;
14187;SDS011;7175;51.978;5.330;2024-03-08T05:06:48;24.10;;;22.20;;
14187;SDS011;7175;51.978;5.330;2024-03-08T05:09:16;23.63;;;21.83;;
14187;SDS011;7175;51.978;5.330;2024-03-08T05:11:45;24.00;;;22.13;;
14187;SDS011;7175;51.978;5.330;2024-03-08T05:14:14;24.83;;;22.93;;
14187;SDS011;7175;51.978;5.330;2024-03-08T05:16:46;23.93;;;22.07;;
14187;SDS011;7175;51.978;5.330;2024-03-08T05:19:15;24.23;;;22.33;;
14187;SDS011;7175;51.978;5.330;2024-03-08T05:21:44;24.37;;;22.47;;
14187;SDS011;7175;51.978;5.330;2024-03-08T05:24:12;23.87;;;22.07;;
14187;SDS011;7175;51.978;5.330;2024-03-08T05:26:43;23.80;;;22.00;;
14187;SDS011;7175;51.978;5.330;2024-03-08T05:29:12;23.80;;;22.00;;
14187;SDS011;7175;51.978;5.330;2024-03-08T05:31:43;23.80;;;22.00;;
14187;SDS011;7175;51.978;5.330;2024-03-08T05:34:15;23.57;;;21.77;;
14187;SDS011;7175;51.978;5.330;2024-03-08T05:36:43;23.53;;;21.73;;
14187;SDS011;7175;51.978;5.330;2024-03-08T05:39:12;23.57;;;21.77;;
14187;SDS011;7175;51.978;5.330;2024-03-08T05:41:41;23.40;;;21.60;;
14187;SDS011;7175;51.978;5.330;2024-03-08T05:44:10;24.17;;;22.37;;
14187;SDS011;7175;51.978;5.330;2024-03-08T05:46:39;23.90;;;22.03;;
14187;SDS011;7175;51.978;5.330;2024-03-08T05:49:07;23.77;;;21.97;;
14187;SDS011;7175;51.978;5.330;2024-03-08T05:51:38;23.57;;;21.77;;
14187;SDS011;7175;51.978;5.330;2024-03-08T05:54:07;23.80;;;22.00;;
14187;SDS011;7175;51.978;5.330;2024-03-08T05:56:37;22.37;;;20.57;;
14187;SDS011;7175;51.978;5.330;2024-03-08T05:59:07;23.27;;;21.47;;
14187;SDS011;7175;51.978;5.330;2024-03-08T06:01:36;23.40;;;21.60;;
14187;SDS011;7175;51.978;5.330;2024-03-08T06:04:07;22.43;;;20.63;;
14187;SDS011;7175;51.978;5.330;2024-03-08T06:06:39;24.50;;;22.50;;
14187;SDS011;7175;51.978;5.330;2024-03-08T06:09:08;25.70;;;23.60;;
14187;SDS011;7175;51.978;5.330;2024-03-08T06:11:39;25.30;;;23.20;;
14187;SDS011;7175;51.978;5.330;2024-03-08T06:14:09;24.00;;;22.00;;
14187;SDS011;7175;51.978;5.330;2024-03-08T06:16:37;23.70;;;21.70;;
14187;SDS011;7175;51.978;5.330;2024-03-08T06:19:06;24.17;;;22.07;;
14187;SDS011;7175;51.978;5.330;2024-03-08T06:21:34;24.00;;;21.90;;
14187;SDS011;7175;51.978;5.330;2024-03-08T06:24:04;23.47;;;21.47;;
14187;SDS011;7175;51.978;5.330;2024-03-08T06:26:33;23.50;;;21.47;;
14187;SDS011;7175;51.978;5.330;2024-03-08T06:29:04;23.50;;;21.40;;
14187;SDS011;7175;51.978;5.330;2024-03-08T06:31:34;22.90;;;20.90;;
14187;SDS011;7175;51.978;5.330;2024-03-08T06:34:06;23.10;;;21.10;;
14187;SDS011;7175;51.978;5.330;2024-03-08T06:36:35;23.07;;;21.07;;
14187;SDS011;7175;51.978;5.330;2024-03-08T06:39:06;23.20;;;21.20;;
14187;SDS011;7175;51.978;5.330;2024-03-08T06:41:36;23.67;;;21.67;;
14187;SDS011;7175;51.978;5.330;2024-03-08T06:44:05;23.47;;;21.43;;
14187;SDS011;7175;51.978;5.330;2024-03-08T06:46:35;23.13;;;21.10;;
14187;SDS011;7175;51.978;5.330;2024-03-08T06:49:04;23.47;;;21.37;;
14187;SDS011;7175;51.978;5.330;2024-03-08T06:51:34;23.03;;;20.97;;
14187;SDS011;7175;51.978;5.330;2024-03-08T06:54:02;22.13;;;20.13;;
14187;SDS011;7175;51.978;5.330;2024-03-08T06:56:36;22.20;;;20.20;;
14187;SDS011;7175;51.978;5.330;2024-03-08T06:59:05;22.50;;;20.50;;
14187;SDS011;7175;51.978;5.330;2024-03-08T07:01:39;21.70;;;19.70;;
14187;SDS011;7175;51.978;5.330;2024-03-08T07:04:07;22.00;;;20.00;;
14187;SDS011;7175;51.978;5.330;2024-03-08T07:06:38;21.30;;;19.30;;
14187;SDS011;7175;51.978;5.330;2024-03-08T07:09:07;22.07;;;20.07;;
14187;SDS011;7175;51.978;5.330;2024-03-08T07:11:37;22.10;;;20.10;;
14187;SDS011;7175;51.978;5.330;2024-03-08T07:14:10;22.27;;;20.27;;
14187;SDS011;7175;51.978;5.330;2024-03-08T07:16:41;22.63;;;20.53;;
14187;SDS011;7175;51.978;5.330;2024-03-08T07:19:11;22.10;;;20.10;;
14187;SDS011;7175;51.978;5.330;2024-03-08T07:21:39;22.20;;;20.10;;
14187;SDS011;7175;51.978;5.330;2024-03-08T07:24:10;23.10;;;21.00;;
14187;SDS011;7175;51.978;5.330;2024-03-08T07:27:01;22.40;;;20.30;;
14187;SDS011;7175;51.978;5.330;2024-03-08T07:29:31;22.50;;;20.40;;
14187;SDS011;7175;51.978;5.330;2024-03-08T07:32:00;22.20;;;20.10;;
14187;SDS011;7175;51.978;5.330;2024-03-08T07:34:38;22.53;;;20.43;;
14187;SDS011;7175;51.978;5.330;2024-03-08T07:37:07;22.50;;;20.50;;
14187;SDS011;7175;51.978;5.330;2024-03-08T07:39:37;22.70;;;20.60;;
14187;SDS011;7175;51.978;5.330;2024-03-08T07:42:07;23.07;;;20.97;;
14187;SDS011;7175;51.978;5.330;2024-03-08T07:44:36;23.33;;;21.23;;
14187;SDS011;7175;51.978;5.330;2024-03-08T07:47:04;23.00;;;20.90;;
14187;SDS011;7175;51.978;5.330;2024-03-08T07:49:35;22.60;;;20.60;;
14187;SDS011;7175;51.978;5.330;2024-03-08T07:52:04;22.03;;;20.03;;
14187;SDS011;7175;51.978;5.330;2024-03-08T07:54:33;22.10;;;20.10;;
14187;SDS011;7175;51.978;5.330;2024-03-08T07:57:02;22.10;;;20.10;;
14187;SDS011;7175;51.978;5.330;2024-03-08T07:59:34;22.30;;;20.30;;
14187;SDS011;7175;51.978;5.330;2024-03-08T08:02:03;22.30;;;20.30;;
14187;SDS011;7175;51.978;5.330;2024-03-08T08:04:31;22.10;;;20.20;;
14187;SDS011;7175;51.978;5.330;2024-03-08T08:06:59;22.03;;;20.13;;
14187;SDS011;7175;51.978;5.330;2024-03-08T08:09:28;21.73;;;19.83;;
14187;SDS011;7175;51.978;5.330;2024-03-08T08:12:01;21.60;;;19.70;;
14187;SDS011;7175;51.978;5.330;2024-03-08T08:14:29;20.20;;;18.40;;
14187;SDS011;7175;51.978;5.330;2024-03-08T08:17:03;21.80;;;19.90;;
14187;SDS011;7175;51.978;5.330;2024-03-08T08:19:35;21.60;;;19.70;;
14187;SDS011;7175;51.978;5.330;2024-03-08T08:22:04;21.40;;;19.57;;
14187;SDS011;7175;51.978;5.330;2024-03-08T08:24:35;20.90;;;19.10;;
14187;SDS011;7175;51.978;5.330;2024-03-08T08:27:04;20.60;;;18.80;;
14187;SDS011;7175;51.978;5.330;2024-03-08T08:29:33;20.90;;;19.10;;
14187;SDS011;7175;51.978;5.330;2024-03-08T08:32:03;20.53;;;18.73;;
14187;SDS011;7175;51.978;5.330;2024-03-08T08:34:31;20.90;;;19.10;;
14187;SDS011;7175;51.978;5.330;2024-03-08T08:37:00;20.83;;;19.03;;
14187;SDS011;7175;51.978;5.330;2024-03-08T08:39:28;20.33;;;18.53;;
14187;SDS011;7175;51.978;5.330;2024-03-08T08:41:57;20.03;;;18.27;;
14187;SDS011;7175;51.978;5.330;2024-03-08T08:44:25;20.53;;;18.73;;
14187;SDS011;7175;51.978;5.330;2024-03-08T08:46:53;20.27;;;18.57;;
14187;SDS011;7175;51.978;5.330;2024-03-08T08:49:32;20.63;;;18.83;;
14187;SDS011;7175;51.978;5.330;2024-03-08T08:52:01;20.53;;;18.80;;
14187;SDS011;7175;51.978;5.330;2024-03-08T08:54:41;20.40;;;18.70;;
14187;SDS011;7175;51.978;5.330;2024-03-08T08:57:15;20.37;;;18.67;;
14187;SDS011;7175;51.978;5.330;2024-03-08T08:59:43;20.60;;;18.90;;
14187;SDS011;7175;51.978;5.330;2024-03-08T09:02:12;20.00;;;18.30;;
14187;SDS011;7175;51.978;5.330;2024-03-08T09:04:45;20.13;;;18.43;;
14187;SDS011;7175;51.978;5.330;2024-03-08T09:07:14;20.00;;;18.30;;
14187;SDS011;7175;51.978;5.330;2024-03-08T09:09:45;19.83;;;18.13;;
14187;SDS011;7175;51.978;5.330;2024-03-08T09:12:13;19.90;;;18.20;;
14187;SDS011;7175;51.978;5.330;2024-03-08T09:14:42;19.73;;;18.13;;
14187;SDS011;7175;51.978;5.330;2024-03-08T09:17:11;19.60;;;18.00;;
14187;SDS011;7175;51.978;5.330;2024-03-08T09:19:43;20.07;;;18.47;;
14187;SDS011;7175;51.978;5.330;2024-03-08T09:22:13;20.23;;;18.63;;
14187;SDS011;7175;51.978;5.330;2024-03-08T09:24:42;20.57;;;18.87;;
14187;SDS011;7175;51.978;5.330;2024-03-08T09:27:10;20.20;;;18.50;;
14187;SDS011;7175;51.978;5.330;2024-03-08T09:29:40;20.23;;;18.53;;
14187;SDS011;7175;51.978;5.330;2024-03-08T09:32:10;19.90;;;18.30;;
14187;SDS011;7175;51.978;5.330;2024-03-08T09:34:38;20.20;;;18.50;;
14187;SDS011;7175;51.978;5.330;2024-03-08T09:37:07;20.03;;;18.33;;
14187;SDS011;7175;51.978;5.330;2024-03-08T09:39:37;20.07;;;18.47;;
14187;SDS011;7175;51.978;5.330;2024-03-08T09:42:05;19.87;;;18.27;;
14187;SDS011;7175;51.978;5.330;2024-03-08T09:44:35;19.90;;;18.30;;
14187;SDS011;7175;51.978;5.330;2024-03-08T09:47:05;20.40;;;18.70;;
14187;SDS011;7175;51.978;5.330;2024-03-08T09:49:34;20.30;;;18.60;;
14187;SDS011;7175;51.978;5.330;2024-03-08T09:52:04;19.83;;;18.23;;
14187;SDS011;7175;51.978;5.330;2024-03-08T09:54:33;20.00;;;18.40;;
14187;SDS011;7175;51.978;5.330;2024-03-08T09:57:02;19.70;;;18.10;;
14187;SDS011;7175;51.978;5.330;2024-03-08T09:59:31;19.73;;;18.13;;
14187;SDS011;7175;51.978;5.330;2024-03-08T10:02:14;19.80;;;18.20;;
14187;SDS011;7175;51.978;5.330;2024-03-08T10:04:43;19.93;;;18.23;;
14187;SDS011;7175;51.978;5.330;2024-03-08T10:07:17;19.80;;;18.10;;
14187;SDS011;7175;51.978;5.330;2024-03-08T10:09:45;20.07;;;18.37;;
14187;SDS011;7175;51.978;5.330;2024-03-08T10:12:18;19.77;;;18.17;;
14187;SDS011;7175;51.978;5.330;2024-03-08T10:14:46;19.97;;;18.27;;
14187;SDS011;7175;51.978;5.330;2024-03-08T10:17:16;19.60;;;17.90;;
14187;SDS011;7175;51.978;5.330;2024-03-08T10:19:49;19.70;;;18.00;;
14187;SDS011;7175;51.978;5.330;2024-03-08T10:22:18;20.30;;;18.60;;
14187;SDS011;7175;51.978;5.330;2024-03-08T10:24:46;20.03;;;18.33;;
14187;SDS011;7175;51.978;5.330;2024-03-08T10:27:17;19.73;;;18.03;;
14187;SDS011;7175;51.978;5.330;2024-03-08T10:29:46;19.80;;;18.10;;
14187;SDS011;7175;51.978;5.330;2024-03-08T10:32:16;20.37;;;18.63;;
14187;SDS011;7175;51.978;5.330;2024-03-08T10:34:45;20.00;;;18.30;;
14187;SDS011;7175;51.978;5.330;2024-03-08T10:37:14;19.90;;;18.20;;
14187;SDS011;7175;51.978;5.330;2024-03-08T10:39:45;20.40;;;18.70;;
14187;SDS011;7175;51.978;5.330;2024-03-08T10:42:17;19.07;;;17.47;;
14187;SDS011;7175;51.978;5.330;2024-03-08T10:44:50;19.77;;;18.07;;
14187;SDS011;7175;51.978;5.330;2024-03-08T10:47:23;19.80;;;18.10;;
14187;SDS011;7175;51.978;5.330;2024-03-08T10:49:59;19.00;;;17.40;;
14187;SDS011;7175;51.978;5.330;2024-03-08T10:52:31;19.60;;;17.90;;
14187;SDS011;7175;51.978;5.330;2024-03-08T10:55:01;18.63;;;17.03;;
14187;SDS011;7175;51.978;5.330;2024-03-08T10:57:31;18.80;;;17.20;;
14187;SDS011;7175;51.978;5.330;2024-03-08T11:00:00;18.53;;;16.93;;
14187;SDS011;7175;51.978;5.330;2024-03-08T11:02:30;19.20;;;17.60;;
14187;SDS011;7175;51.978;5.330;2024-03-08T11:04:59;18.90;;;17.30;;
14187;SDS011;7175;51.978;5.330;2024-03-08T11:07:27;18.90;;;17.30;;
14187;SDS011;7175;51.978;5.330;2024-03-08T11:09:58;18.50;;;16.90;;
14187;SDS011;7175;51.978;5.330;2024-03-08T11:12:27;18.00;;;16.50;;
14187;SDS011;7175;51.978;5.330;2024-03-08T11:15:01;18.50;;;16.93;;
14187;SDS011;7175;51.978;5.330;2024-03-08T11:17:40;18.70;;;17.10;;
14187;SDS011;7175;51.978;5.330;2024-03-08T11:20:10;18.50;;;16.90;;
14187;SDS011;7175;51.978;5.330;2024-03-08T11:22:42;18.50;;;16.90;;
14187;SDS011;7175;51.978;5.330;2024-03-08T11:25:32;18.00;;;16.50;;
14187;SDS011;7175;51.978;5.330;2024-03-08T11:28:07;18.37;;;16.80;;
14187;SDS011;7175;51.978;5.330;2024-03-08T11:30:36;18.13;;;16.60;;
14187;SDS011;7175;51.978;5.330;2024-03-08T11:33:06;18.20;;;16.70;;
14187;SDS011;7175;51.978;5.330;2024-03-08T11:35:40;18.50;;;16.90;;
14187;SDS011;7175;51.978;5.330;2024-03-08T11:38:12;18.70;;;17.10;;
14187;SDS011;7175;51.978;5.330;2024-03-08T11:40:43;18.80;;;17.20;;
14187;SDS011;7175;51.978;5.330;2024-03-08T11:43:16;18.60;;;17.00;;
14187;SDS011;7175;51.978;5.330;2024-03-08T11:45:45;18.60;;;17.00;;
14187;SDS011;7175;51.978;5.330;2024-03-08T11:48:14;18.67;;;17.07;;
14187;SDS011;7175;51.978;5.330;2024-03-08T11:50:43;18.53;;;16.93;;
14187;SDS011;7175;51.978;5.330;2024-03-08T11:53:11;18.50;;;16.90;;
14187;SDS011;7175;51.978;5.330;2024-03-08T11:55:40;18.60;;;17.00;;
14187;SDS011;7175;51.978;5.330;2024-03-08T11:58:08;18.40;;;16.80;;
14187;SDS011;7175;51.978;5.330;2024-03-08T12:00:37;18.77;;;17.17;;
14187;SDS011;7175;51.978;5.330;2024-03-08T12:03:09;18.77;;;17.17;;
14187;SDS011;7175;51.978;5.330;2024-03-08T12:05:38;18.73;;;17.13;;
14187;SDS011;7175;51.978;5.330;2024-03-08T12:08:06;18.80;;;17.20;;
14187;SDS011;7175;51.978;5.330;2024-03-08T12:10:40;18.80;;;17.20;;
14187;SDS011;7175;51.978;5.330;2024-03-08T12:13:09;18.73;;;17.13;;
14187;SDS011;7175;51.978;5.330;2024-03-08T12:15:40;18.80;;;17.20;;
14187;SDS011;7175;51.978;5.330;2024-03-08T12:18:12;18.97;;;17.37;;
14187;SDS011;7175;51.978;5.330;2024-03-08T12:20:40;18.97;;;17.37;;
14187;SDS011;7175;51.978;5.330;2024-03-08T12:23:15;18.70;;;17.10;;
14187;SDS011;7175;51.978;5.330;2024-03-08T12:25:44;18.70;;;17.10;;
14187;SDS011;7175;51.978;5.330;2024-03-08T12:28:14;18.77;;;17.17;;
14187;SDS011;7175;51.978;5.330;2024-03-08T12:30:47;18.63;;;17.03;;
14187;SDS011;7175;51.978;5.330;2024-03-08T12:33:19;18.83;;;17.23;;
14187;SDS011;7175;51.978;5.330;2024-03-08T12:35:52;18.70;;;17.10;;
14187;SDS011;7175;51.978;5.330;2024-03-08T12:38:22;18.57;;;16.97;;
14187;SDS011;7175;51.978;5.330;2024-03-08T12:40:54;18.80;;;17.20;;
14187;SDS011;7175;51.978;5.330;2024-03-08T12:43:24;18.77;;;17.17;;
14187;SDS011;7175;51.978;5.330;2024-03-08T12:45:53;19.07;;;17.40;;
14187;SDS011;7175;51.978;5.330;2024-03-08T12:48:25;18.90;;;17.30;;
14187;SDS011;7175;51.978;5.330;2024-03-08T12:50:59;18.93;;;17.33;;
14187;SDS011;7175;51.978;5.330;2024-03-08T12:53:45;18.97;;;17.37;;
14187;SDS011;7175;51.978;5.330;2024-03-08T12:56:28;19.13;;;17.53;;
14187;SDS011;7175;51.978;5.330;2024-03-08T12:59:03;18.67;;;17.07;;
14187;SDS011;7175;51.978;5.330;2024-03-08T13:01:36;18.43;;;16.83;;
14187;SDS011;7175;51.978;5.330;2024-03-08T13:04:08;18.83;;;17.23;;
14187;SDS011;7175;51.978;5.330;2024-03-08T13:06:40;18.90;;;17.30;;
14187;SDS011;7175;51.978;5.330;2024-03-08T13:09:10;18.80;;;17.20;;
14187;SDS011;7175;51.978;5.330;2024-03-08T13:11:40;19.53;;;17.83;;
14187;SDS011;7175;51.978;5.330;2024-03-08T13:14:10;19.57;;;17.87;;
14187;SDS011;7175;51.978;5.330;2024-03-08T13:16:40;19.50;;;17.83;;
14187;SDS011;7175;51.978;5.330;2024-03-08T13:19:12;19.97;;;18.27;;
14187;SDS011;7175;51.978;5.330;2024-03-08T13:21:42;19.70;;;18.00;;
14187;SDS011;7175;51.978;5.330;2024-03-08T13:24:16;19.50;;;17.80;;
14187;SDS011;7175;51.978;5.330;2024-03-08T13:26:48;19.60;;;17.90;;
14187;SDS011;7175;51.978;5.330;2024-03-08T13:29:18;19.50;;;17.80;;
14187;SDS011;7175;51.978;5.330;2024-03-08T13:31:48;19.43;;;17.73;;
14187;SDS011;7175;51.978;5.330;2024-03-08T13:34:20;19.20;;;17.60;;
14187;SDS011;7175;51.978;5.330;2024-03-08T13:36:56;19.63;;;17.93;;
14187;SDS011;7175;51.978;5.330;2024-03-08T13:39:30;19.83;;;18.13;;
14187;SDS011;7175;51.978;5.330;2024-03-08T13:42:07;19.90;;;18.20;;
14187;SDS011;7175;51.978;5.330;2024-03-08T13:44:44;20.03;;;18.33;;
14187;SDS011;7175;51.978;5.330;2024-03-08T13:47:14;19.57;;;17.87;;
14187;SDS011;7175;51.978;5.330;2024-03-08T13:49:47;19.57;;;17.87;;
14187;SDS011;7175;51.978;5.330;2024-03-08T13:52:22;20.20;;;18.50;;
14187;SDS011;7175;51.978;5.330;2024-03-08T13:54:57;20.23;;;18.53;;
14187;SDS011;7175;51.978;5.330;2024-03-08T13:57:27;20.17;;;18.47;;
14187;SDS011;7175;51.978;5.330;2024-03-08T13:59:57;20.20;;;18.50;;
14187;SDS011;7175;51.978;5.330;2024-03-08T14:02:27;20.33;;;18.63;;
14187;SDS011;7175;51.978;5.330;2024-03-08T14:04:59;20.17;;;18.47;;
14187;SDS011;7175;51.978;5.330;2024-03-08T14:07:30;20.43;;;18.63;;
14187;SDS011;7175;51.978;5.330;2024-03-08T14:10:00;20.40;;;18.60;;
14187;SDS011;7175;51.978;5.330;2024-03-08T14:12:30;20.30;;;18.50;;
14187;SDS011;7175;51.978;5.330;2024-03-08T14:14:58;20.83;;;19.03;;
14187;SDS011;7175;51.978;5.330;2024-03-08T14:17:27;20.97;;;19.17;;
14187;SDS011;7175;51.978;5.330;2024-03-08T14:19:57;20.77;;;18.97;;
14187;SDS011;7175;51.978;5.330;2024-03-08T14:22:28;20.70;;;18.90;;
14187;SDS011;7175;51.978;5.330;2024-03-08T14:24:59;20.70;;;18.90;;
14187;SDS011;7175;51.978;5.330;2024-03-08T14:27:31;20.37;;;18.57;;
14187;SDS011;7175;51.978;5.330;2024-03-08T14:30:00;20.97;;;19.17;;
14187;SDS011;7175;51.978;5.330;2024-03-08T14:32:29;20.97;;;19.17;;
14187;SDS011;7175;51.978;5.330;2024-03-08T14:34:59;20.67;;;18.87;;
14187;SDS011;7175;51.978;5.330;2024-03-08T14:37:29;20.80;;;19.00;;
14187;SDS011;7175;51.978;5.330;2024-03-08T14:39:58;20.73;;;18.93;;
14187;SDS011;7175;51.978;5.330;2024-03-08T14:42:26;20.87;;;19.07;;
14187;SDS011;7175;51.978;5.330;2024-03-08T14:44:54;20.43;;;18.70;;
14187;SDS011;7175;51.978;5.330;2024-03-08T14:47:24;20.90;;;19.10;;
14187;SDS011;7175;51.978;5.330;2024-03-08T14:49:53;20.57;;;18.77;;